Terminal Aerodrome Forecast
Issued by NWS La Crosse, WI

Home | Current Version | Previous Version | Text Only | Print | Product List | Glossary On
Versions: 1 2 3 4 5 6 7 8 9 10 11 12 13 14 15 16 17 18 19 20 21 22 23 24 25 26 27
000
FTUS43 KARX 302321
TAFLSE
TAF
KLSE 302321Z 3100/3124 16005KT P6SM SCT200
     FM310200 17005KT P6SM BKN100
     FM310900 13006KT P6SM VCTS BKN050CB
     FM311200 16009KT P6SM SCT050 BKN150
     FM312100 17012G20KT 5SM TSRA BR BKN040CB=

USA.gov is the U.S. government's official web portal to all federal, state and local government web resources and services.